Hutchins, Vermont
Current Conditions -  °F | °C
As of 7:35 PM on Saturday 25 Oct 2014 (Local Time) from KEFK Reporting Station
Drizzle Drizzle  
Wind Chill: 46°   Ceiling: 4400
Heat Index: 48°   Visibility: 10mi
Dew Point: 46°   Wind: 5mph
Humidity: 92%   Direction: 160°SSE
Pressure: 29.49"   Gusts: NA
Location:  44.8557°N, 72.6016°W
Report Text: KEFK 252335Z AUTO 16004KT 10SM -DZ BKN044 BKN050 OVC065 09/08 A2949 RMK AO2 T00880076
Loading
Personal Weather Stations






























Interactive Weather Map New forecast layout! Learn more

10-Day Weather Forecast

Advertisements
Track Severe Weather on mobile